Terminal Aerodrome Forecast
Issued by NWS

Home | Current Version | Previous Version | Text Only | Print | Product List | Glossary On
Versions: 1 2 3 4 5 6 7 8 9 10 11 12 13 14 15 16 17 18
837
FTUS42 KMLB 272320
TAFTIX
TAF
KTIX 272320Z 2800/2824 14005KT P6SM FEW030
     FM280800 12004KT P6SM SCT008
      TEMPO 2809/2812 5SM BR BKN008
     FM281500 12011KT P6SM SCT025 SCT050
      AMD NOT SKED 2802/2812=

USA.gov is the U.S. government's official web portal to all federal, state and local government web resources and services.